sensor_id;sensor_type;location;lat;lon;timestamp;pressure;altitude;pressure_sealevel;temperature;humidity
11971;BME280;6045;42.682;23.294;2023-05-17T00:01:08;94049.84;;;15.73;95.93
11971;BME280;6045;42.682;23.294;2023-05-17T00:03:35;94058.75;;;15.68;96.01
11971;BME280;6045;42.682;23.294;2023-05-17T00:06:04;94065.50;;;15.66;95.82
11971;BME280;6045;42.682;23.294;2023-05-17T00:08:30;94066.56;;;15.65;96.22
11971;BME280;6045;42.682;23.294;2023-05-17T00:10:57;94075.19;;;15.67;95.79
11971;BME280;6045;42.682;23.294;2023-05-17T00:13:24;94072.25;;;15.63;95.49
11971;BME280;6045;42.682;23.294;2023-05-17T00:15:51;94062.53;;;15.57;95.92
11971;BME280;6045;42.682;23.294;2023-05-17T00:18:17;94058.78;;;15.53;95.85
11971;BME280;6045;42.682;23.294;2023-05-17T00:20:44;94063.66;;;15.51;96.74
11971;BME280;6045;42.682;23.294;2023-05-17T00:23:12;94058.81;;;15.48;96.19
11971;BME280;6045;42.682;23.294;2023-05-17T00:25:39;94067.69;;;15.49;96.12
11971;BME280;6045;42.682;23.294;2023-05-17T00:28:06;94067.44;;;15.45;95.42
11971;BME280;6045;42.682;23.294;2023-05-17T00:30:32;94056.91;;;15.39;95.70
11971;BME280;6045;42.682;23.294;2023-05-17T00:32:59;94057.19;;;15.37;96.41
11971;BME280;6045;42.682;23.294;2023-05-17T00:35:26;94059.59;;;15.39;96.67
11971;BME280;6045;42.682;23.294;2023-05-17T00:37:52;94054.22;;;15.39;95.68
11971;BME280;6045;42.682;23.294;2023-05-17T00:40:21;94049.66;;;15.39;95.82
11971;BME280;6045;42.682;23.294;2023-05-17T00:42:47;94060.13;;;15.36;95.21
11971;BME280;6045;42.682;23.294;2023-05-17T00:45:14;94070.38;;;15.29;94.63
11971;BME280;6045;42.682;23.294;2023-05-17T00:47:41;94070.16;;;15.15;95.60
11971;BME280;6045;42.682;23.294;2023-05-17T00:50:08;94065.56;;;15.05;97.42
11971;BME280;6045;42.682;23.294;2023-05-17T00:52:36;94061.81;;;14.96;97.13
11971;BME280;6045;42.682;23.294;2023-05-17T00:55:04;94064.25;;;14.88;99.44
11971;BME280;6045;42.682;23.294;2023-05-17T00:57:32;94076.34;;;14.75;99.15
11971;BME280;6045;42.682;23.294;2023-05-17T01:00:00;94078.78;;;14.72;99.82
11971;BME280;6045;42.682;23.294;2023-05-17T01:02:27;94076.34;;;14.65;100.00
11971;BME280;6045;42.682;23.294;2023-05-17T01:04:53;94068.81;;;14.57;100.00
11971;BME280;6045;42.682;23.294;2023-05-17T01:07:20;94076.88;;;14.52;100.00
11971;BME280;6045;42.682;23.294;2023-05-17T01:09:47;94068.25;;;14.45;100.00
11971;BME280;6045;42.682;23.294;2023-05-17T01:12:21;94062.59;;;14.47;100.00
11971;BME280;6045;42.682;23.294;2023-05-17T01:14:57;94067.19;;;14.51;100.00
11971;BME280;6045;42.682;23.294;2023-05-17T01:17:33;94064.78;;;14.55;100.00
11971;BME280;6045;42.682;23.294;2023-05-17T01:20:09;94068.25;;;14.60;100.00
11971;BME280;6045;42.682;23.294;2023-05-17T01:22:43;94061.28;;;14.64;100.00
11971;BME280;6045;42.682;23.294;2023-05-17T01:25:20;94068.28;;;14.70;100.00
11971;BME280;6045;42.682;23.294;2023-05-17T01:27:55;94065.06;;;14.73;99.91
11971;BME280;6045;42.682;23.294;2023-05-17T01:30:25;94060.22;;;14.75;99.10
11971;BME280;6045;42.682;23.294;2023-05-17T01:32:54;94067.22;;;14.71;98.04
11971;BME280;6045;42.682;23.294;2023-05-17T01:35:22;94064.78;;;14.65;97.74
11971;BME280;6045;42.682;23.294;2023-05-17T01:37:48;94055.63;;;14.61;98.54
11971;BME280;6045;42.682;23.294;2023-05-17T01:40:16;94054.28;;;14.58;99.18
11971;BME280;6045;42.682;23.294;2023-05-17T01:42:44;94062.63;;;14.57;99.18
11971;BME280;6045;42.682;23.294;2023-05-17T01:45:18;94062.63;;;14.52;98.75
11971;BME280;6045;42.682;23.294;2023-05-17T01:47:51;94070.16;;;14.50;98.73
11971;BME280;6045;42.682;23.294;2023-05-17T01:50:23;94076.59;;;14.44;98.83
11971;BME280;6045;42.682;23.294;2023-05-17T01:52:52;94075.25;;;14.41;99.44
11971;BME280;6045;42.682;23.294;2023-05-17T01:55:25;94063.69;;;14.41;99.42
11971;BME280;6045;42.682;23.294;2023-05-17T01:57:54;94059.91;;;14.42;99.53
11971;BME280;6045;42.682;23.294;2023-05-17T02:00:24;94052.66;;;14.42;98.66
11971;BME280;6045;42.682;23.294;2023-05-17T02:02:52;94063.69;;;14.41;97.85
11971;BME280;6045;42.682;23.294;2023-05-17T02:05:18;94071.47;;;14.42;97.81
11971;BME280;6045;42.682;23.294;2023-05-17T02:07:45;94066.91;;;14.43;97.23
11971;BME280;6045;42.682;23.294;2023-05-17T02:10:12;94061.81;;;14.41;97.84
11971;BME280;6045;42.682;23.294;2023-05-17T02:12:39;94052.94;;;14.41;97.54
11971;BME280;6045;42.682;23.294;2023-05-17T02:15:06;94057.50;;;14.45;97.29
11971;BME280;6045;42.682;23.294;2023-05-17T02:17:37;94051.59;;;14.43;97.01
11971;BME280;6045;42.682;23.294;2023-05-17T02:20:06;94058.56;;;14.34;95.71
11971;BME280;6045;42.682;23.294;2023-05-17T02:22:33;94052.91;;;14.35;96.06
11971;BME280;6045;42.682;23.294;2023-05-17T02:25:00;94057.50;;;14.35;95.95
11971;BME280;6045;42.682;23.294;2023-05-17T02:27:26;94048.59;;;14.34;95.72
11971;BME280;6045;42.682;23.294;2023-05-17T02:29:53;94050.19;;;14.25;95.53
11971;BME280;6045;42.682;23.294;2023-05-17T02:32:20;94044.53;;;14.22;96.51
11971;BME280;6045;42.682;23.294;2023-05-17T02:34:48;94044.81;;;14.15;96.82
11971;BME280;6045;42.682;23.294;2023-05-17T02:37:15;94052.03;;;14.10;96.98
11971;BME280;6045;42.682;23.294;2023-05-17T02:39:42;94051.50;;;14.08;97.71
11971;BME280;6045;42.682;23.294;2023-05-17T02:42:08;94050.13;;;14.00;97.82
11971;BME280;6045;42.682;23.294;2023-05-17T02:44:35;94048.50;;;13.99;98.20
11971;BME280;6045;42.682;23.294;2023-05-17T02:47:02;94061.16;;;13.99;97.74
11971;BME280;6045;42.682;23.294;2023-05-17T02:49:29;94059.53;;;13.98;97.45
11971;BME280;6045;42.682;23.294;2023-05-17T02:51:57;94068.91;;;13.95;98.14
11971;BME280;6045;42.682;23.294;2023-05-17T02:54:25;94073.50;;;14.00;97.87
11971;BME280;6045;42.682;23.294;2023-05-17T02:56:51;94075.66;;;14.03;97.51
11971;BME280;6045;42.682;23.294;2023-05-17T02:59:18;94082.09;;;14.02;96.97
11971;BME280;6045;42.682;23.294;2023-05-17T03:01:45;94081.56;;;14.05;96.87
11971;BME280;6045;42.682;23.294;2023-05-17T03:04:13;94091.81;;;14.08;96.60
11971;BME280;6045;42.682;23.294;2023-05-17T03:06:40;94096.91;;;14.09;96.02
11971;BME280;6045;42.682;23.294;2023-05-17T03:09:08;94101.75;;;14.07;95.35
11971;BME280;6045;42.682;23.294;2023-05-17T03:11:35;94100.94;;;14.07;95.67
11971;BME280;6045;42.682;23.294;2023-05-17T03:14:02;94110.59;;;14.03;95.86
11971;BME280;6045;42.682;23.294;2023-05-17T03:16:28;94111.13;;;14.05;95.23
11971;BME280;6045;42.682;23.294;2023-05-17T03:18:55;94112.19;;;14.04;94.71
11971;BME280;6045;42.682;23.294;2023-05-17T03:21:22;94109.78;;;14.02;94.29
11971;BME280;6045;42.682;23.294;2023-05-17T03:23:49;94115.16;;;14.02;94.52
11971;BME280;6045;42.682;23.294;2023-05-17T03:26:17;94121.34;;;14.03;94.47
11971;BME280;6045;42.682;23.294;2023-05-17T03:28:44;94110.31;;;14.04;94.07
11971;BME280;6045;42.682;23.294;2023-05-17T03:31:11;94108.19;;;14.01;93.91
11971;BME280;6045;42.682;23.294;2023-05-17T03:33:37;94109.75;;;13.97;94.53
11971;BME280;6045;42.682;23.294;2023-05-17T03:36:04;94106.25;;;13.97;94.50
11971;BME280;6045;42.682;23.294;2023-05-17T03:38:32;94100.31;;;13.90;95.16
11971;BME280;6045;42.682;23.294;2023-05-17T03:40:59;94101.97;;;13.96;95.77
11971;BME280;6045;42.682;23.294;2023-05-17T03:43:27;94096.88;;;14.04;94.87
11971;BME280;6045;42.682;23.294;2023-05-17T03:45:54;94103.03;;;13.95;94.90
11971;BME280;6045;42.682;23.294;2023-05-17T03:48:21;94104.59;;;13.86;94.90
11971;BME280;6045;42.682;23.294;2023-05-17T03:50:47;94102.97;;;13.75;94.51
11971;BME280;6045;42.682;23.294;2023-05-17T03:53:14;94102.22;;;13.89;100.00
11971;BME280;6045;42.682;23.294;2023-05-17T03:55:41;94105.81;;;14.25;100.00
11971;BME280;6045;42.682;23.294;2023-05-17T03:58:23;94097.28;;;14.33;100.00
11971;BME280;6045;42.682;23.294;2023-05-17T04:00:51;94102.97;;;14.52;98.38
11971;BME280;6045;42.682;23.294;2023-05-17T04:03:18;94110.28;;;14.81;100.00
11971;BME280;6045;42.682;23.294;2023-05-17T04:06:05;94110.25;;;15.27;100.00
11971;BME280;6045;42.682;23.294;2023-05-17T04:08:32;94120.47;;;15.30;94.77
11971;BME280;6045;42.682;23.294;2023-05-17T04:10:59;94118.31;;;15.32;92.47
11971;BME280;6045;42.682;23.294;2023-05-17T04:13:34;94116.16;;;15.39;90.18
11971;BME280;6045;42.682;23.294;2023-05-17T04:16:03;94117.22;;;15.43;89.67
11971;BME280;6045;42.682;23.294;2023-05-17T04:18:33;94124.50;;;15.52;90.25
11971;BME280;6045;42.682;23.294;2023-05-17T04:21:00;94112.38;;;15.65;89.32
11971;BME280;6045;42.682;23.294;2023-05-17T04:23:27;94108.31;;;15.67;88.65
11971;BME280;6045;42.682;23.294;2023-05-17T04:25:54;94105.69;;;15.47;89.04
11971;BME280;6045;42.682;23.294;2023-05-17T04:28:22;94113.47;;;15.29;87.60
11971;BME280;6045;42.682;23.294;2023-05-17T04:30:49;94111.34;;;15.31;89.83
11971;BME280;6045;42.682;23.294;2023-05-17T04:33:17;94112.66;;;15.33;89.17
11971;BME280;6045;42.682;23.294;2023-05-17T04:35:44;94118.88;;;15.49;91.98
11971;BME280;6045;42.682;23.294;2023-05-17T04:38:12;94102.69;;;15.59;90.09
11971;BME280;6045;42.682;23.294;2023-05-17T04:40:38;94108.06;;;15.64;89.78
11971;BME280;6045;42.682;23.294;2023-05-17T04:43:05;94112.31;;;15.85;90.60
11971;BME280;6045;42.682;23.294;2023-05-17T04:45:32;94114.97;;;15.95;89.92
11971;BME280;6045;42.682;23.294;2023-05-17T04:47:59;94107.91;;;16.09;89.27
11971;BME280;6045;42.682;23.294;2023-05-17T04:50:27;94114.84;;;16.20;86.26
11971;BME280;6045;42.682;23.294;2023-05-17T04:52:54;94112.44;;;16.19;85.58
11971;BME280;6045;42.682;23.294;2023-05-17T04:55:21;94120.25;;;16.20;85.08
11971;BME280;6045;42.682;23.294;2023-05-17T04:57:47;94119.19;;;16.16;83.97
11971;BME280;6045;42.682;23.294;2023-05-17T05:00:15;94118.38;;;16.21;84.18
11971;BME280;6045;42.682;23.294;2023-05-17T05:02:43;94116.50;;;16.16;83.71
11971;BME280;6045;42.682;23.294;2023-05-17T05:05:10;94123.00;;;16.15;82.77
11971;BME280;6045;42.682;23.294;2023-05-17T05:07:39;94116.81;;;16.05;82.23
11971;BME280;6045;42.682;23.294;2023-05-17T05:10:06;94119.84;;;15.88;82.83
11971;BME280;6045;42.682;23.294;2023-05-17T05:12:33;94130.09;;;15.91;83.11
11971;BME280;6045;42.682;23.294;2023-05-17T05:15:00;94129.78;;;15.98;83.09
11971;BME280;6045;42.682;23.294;2023-05-17T05:17:29;94130.84;;;16.02;82.04
11971;BME280;6045;42.682;23.294;2023-05-17T05:19:56;94132.47;;;16.08;81.48
11971;BME280;6045;42.682;23.294;2023-05-17T05:22:22;94138.34;;;16.25;82.09
11971;BME280;6045;42.682;23.294;2023-05-17T05:24:50;94136.28;;;16.61;81.34
11971;BME280;6045;42.682;23.294;2023-05-17T05:27:17;94145.31;;;16.85;79.74
11971;BME280;6045;42.682;23.294;2023-05-17T05:29:44;94138.47;;;16.97;78.25
11971;BME280;6045;42.682;23.294;2023-05-17T05:32:11;94132.06;;;17.22;78.38
11971;BME280;6045;42.682;23.294;2023-05-17T05:34:39;94127.91;;;17.35;75.92
11971;BME280;6045;42.682;23.294;2023-05-17T05:37:06;94131.75;;;17.62;75.50
11971;BME280;6045;42.682;23.294;2023-05-17T05:39:33;94127.28;;;17.76;75.60
11971;BME280;6045;42.682;23.294;2023-05-17T05:42:01;94130.91;;;17.91;75.14
11971;BME280;6045;42.682;23.294;2023-05-17T05:44:28;94130.19;;;18.09;75.00
11971;BME280;6045;42.682;23.294;2023-05-17T05:46:55;94132.59;;;18.10;72.33
11971;BME280;6045;42.682;23.294;2023-05-17T05:49:22;94133.72;;;18.28;72.87
11971;BME280;6045;42.682;23.294;2023-05-17T05:51:48;94145.47;;;18.42;69.89
11971;BME280;6045;42.682;23.294;2023-05-17T05:54:15;94134.03;;;18.26;70.61
11971;BME280;6045;42.682;23.294;2023-05-17T05:56:42;94119.56;;;18.36;72.09
11971;BME280;6045;42.682;23.294;2023-05-17T05:59:10;94130.91;;;18.38;71.35
11971;BME280;6045;42.682;23.294;2023-05-17T06:01:37;94135.66;;;18.51;69.89
11971;BME280;6045;42.682;23.294;2023-05-17T06:04:04;94141.09;;;18.70;69.03
11971;BME280;6045;42.682;23.294;2023-05-17T06:06:30;94141.81;;;18.75;69.19
11971;BME280;6045;42.682;23.294;2023-05-17T06:08:57;94149.47;;;18.50;68.54
11971;BME280;6045;42.682;23.294;2023-05-17T06:11:24;94142.03;;;18.60;70.04
11971;BME280;6045;42.682;23.294;2023-05-17T06:13:51;94151.91;;;19.07;69.62
11971;BME280;6045;42.682;23.294;2023-05-17T06:16:19;94146.88;;;19.38;67.43
11971;BME280;6045;42.682;23.294;2023-05-17T06:18:46;94151.56;;;19.64;66.60
11971;BME280;6045;42.682;23.294;2023-05-17T06:21:12;94148.09;;;19.45;66.58
11971;BME280;6045;42.682;23.294;2023-05-17T06:23:40;94155.84;;;19.33;68.20
11971;BME280;6045;42.682;23.294;2023-05-17T06:26:07;94155.63;;;19.30;67.14
11971;BME280;6045;42.682;23.294;2023-05-17T06:28:35;94157.75;;;19.33;69.08
11971;BME280;6045;42.682;23.294;2023-05-17T06:31:02;94150.16;;;19.67;67.28
11971;BME280;6045;42.682;23.294;2023-05-17T06:33:30;94162.03;;;19.71;66.62
11971;BME280;6045;42.682;23.294;2023-05-17T06:35:57;94166.50;;;19.94;65.05
11971;BME280;6045;42.682;23.294;2023-05-17T06:38:23;94157.53;;;19.80;66.31
11971;BME280;6045;42.682;23.294;2023-05-17T06:40:51;94153.88;;;20.17;65.11
11971;BME280;6045;42.682;23.294;2023-05-17T06:43:18;94153.13;;;20.43;63.19
11971;BME280;6045;42.682;23.294;2023-05-17T06:45:45;94163.75;;;20.40;62.71
11971;BME280;6045;42.682;23.294;2023-05-17T06:48:12;94156.41;;;20.40;62.50
11971;BME280;6045;42.682;23.294;2023-05-17T06:50:40;94152.59;;;20.69;61.88
11971;BME280;6045;42.682;23.294;2023-05-17T06:53:07;94158.31;;;20.81;61.27
11971;BME280;6045;42.682;23.294;2023-05-17T06:55:33;94159.03;;;20.59;62.69
11971;BME280;6045;42.682;23.294;2023-05-17T06:58:00;94156.91;;;20.42;63.60
11971;BME280;6045;42.682;23.294;2023-05-17T07:00:27;94146.03;;;20.15;63.92
11971;BME280;6045;42.682;23.294;2023-05-17T07:02:54;94157.63;;;20.62;63.42
11971;BME280;6045;42.682;23.294;2023-05-17T07:05:21;94162.59;;;21.09;62.67
11971;BME280;6045;42.682;23.294;2023-05-17T07:07:49;94161.47;;;21.24;63.36
11971;BME280;6045;42.682;23.294;2023-05-17T07:10:16;94169.94;;;21.44;61.30
11971;BME280;6045;42.682;23.294;2023-05-17T07:12:43;94168.72;;;21.01;62.20
11971;BME280;6045;42.682;23.294;2023-05-17T07:15:10;94161.25;;;21.20;62.02
11971;BME280;6045;42.682;23.294;2023-05-17T07:17:37;94169.66;;;21.10;61.15
11971;BME280;6045;42.682;23.294;2023-05-17T07:20:05;94169.78;;;21.05;61.51
11971;BME280;6045;42.682;23.294;2023-05-17T07:22:32;94170.53;;;21.19;61.54
11971;BME280;6045;42.682;23.294;2023-05-17T07:25:00;94177.22;;;21.35;60.91
11971;BME280;6045;42.682;23.294;2023-05-17T07:27:27;94184.63;;;21.43;60.10
11971;BME280;6045;42.682;23.294;2023-05-17T07:29:54;94179.25;;;21.30;59.70
11971;BME280;6045;42.682;23.294;2023-05-17T07:32:20;94176.63;;;20.62;62.09
11971;BME280;6045;42.682;23.294;2023-05-17T07:34:47;94170.19;;;20.58;63.34
11971;BME280;6045;42.682;23.294;2023-05-17T07:37:14;94177.25;;;20.72;63.55
11971;BME280;6045;42.682;23.294;2023-05-17T07:39:41;94182.06;;;20.62;62.29
11971;BME280;6045;42.682;23.294;2023-05-17T07:42:09;94177.44;;;20.49;63.74
11971;BME280;6045;42.682;23.294;2023-05-17T07:44:36;94178.03;;;20.59;63.45
11971;BME280;6045;42.682;23.294;2023-05-17T07:47:03;94180.84;;;20.81;63.27
11971;BME280;6045;42.682;23.294;2023-05-17T07:49:30;94182.97;;;20.71;62.82
11971;BME280;6045;42.682;23.294;2023-05-17T07:51:56;94168.59;;;20.70;62.67
11971;BME280;6045;42.682;23.294;2023-05-17T07:54:24;94170.25;;;20.80;62.78
11971;BME280;6045;42.682;23.294;2023-05-17T07:56:52;94177.25;;;20.72;63.19
11971;BME280;6045;42.682;23.294;2023-05-17T07:59:21;94180.03;;;20.81;62.38
11971;BME280;6045;42.682;23.294;2023-05-17T08:01:47;94164.50;;;21.08;63.27
11971;BME280;6045;42.682;23.294;2023-05-17T08:04:14;94166.88;;;21.59;61.45
11971;BME280;6045;42.682;23.294;2023-05-17T08:06:41;94174.59;;;21.66;60.41
11971;BME280;6045;42.682;23.294;2023-05-17T08:09:10;94172.44;;;21.54;60.47
11971;BME280;6045;42.682;23.294;2023-05-17T08:11:36;94176.88;;;21.72;60.44
11971;BME280;6045;42.682;23.294;2023-05-17T08:14:10;94181.69;;;21.53;60.30
11971;BME280;6045;42.682;23.294;2023-05-17T08:16:39;94178.72;;;21.41;61.54
11971;BME280;6045;42.682;23.294;2023-05-17T08:19:05;94168.09;;;21.53;61.09
11971;BME280;6045;42.682;23.294;2023-05-17T08:21:32;94171.56;;;21.67;61.09
11971;BME280;6045;42.682;23.294;2023-05-17T08:23:59;94167.78;;;21.77;60.96
11971;BME280;6045;42.682;23.294;2023-05-17T08:26:26;94168.66;;;21.86;60.55
11971;BME280;6045;42.682;23.294;2023-05-17T08:31:39;94162.88;;;21.21;61.51
11971;BME280;6045;42.682;23.294;2023-05-17T08:34:06;94164.25;;;21.32;61.87
11971;BME280;6045;42.682;23.294;2023-05-17T08:36:32;94154.88;;;21.38;61.46
11971;BME280;6045;42.682;23.294;2023-05-17T08:38:59;94165.31;;;21.45;61.24
11971;BME280;6045;42.682;23.294;2023-05-17T08:44:03;94173.25;;;21.41;61.51
11971;BME280;6045;42.682;23.294;2023-05-17T08:46:31;94165.38;;;21.53;61.25
11971;BME280;6045;42.682;23.294;2023-05-17T08:49:01;94166.47;;;21.74;59.96
11971;BME280;6045;42.682;23.294;2023-05-17T08:51:30;94168.59;;;21.77;60.31
11971;BME280;6045;42.682;23.294;2023-05-17T08:53:58;94180.97;;;21.61;59.85
11971;BME280;6045;42.682;23.294;2023-05-17T08:56:29;94166.38;;;21.57;60.69
11971;BME280;6045;42.682;23.294;2023-05-17T08:58:57;94156.03;;;21.68;60.91
11971;BME280;6045;42.682;23.294;2023-05-17T09:01:24;94164.94;;;22.04;60.58
11971;BME280;6045;42.682;23.294;2023-05-17T09:03:52;94167.44;;;22.23;60.26
11971;BME280;6045;42.682;23.294;2023-05-17T09:06:21;94161.44;;;22.43;58.50
11971;BME280;6045;42.682;23.294;2023-05-17T09:08:49;94158.91;;;22.46;58.36
11971;BME280;6045;42.682;23.294;2023-05-17T09:11:24;94164.38;;;22.55;58.03
11971;BME280;6045;42.682;23.294;2023-05-17T09:13:51;94158.78;;;22.21;57.82
11971;BME280;6045;42.682;23.294;2023-05-17T09:16:18;94150.91;;;22.19;59.79
11971;BME280;6045;42.682;23.294;2023-05-17T09:18:52;94157.06;;;22.03;59.39
11971;BME280;6045;42.682;23.294;2023-05-17T09:21:21;94149.50;;;21.91;58.92
11971;BME280;6045;42.682;23.294;2023-05-17T09:23:49;94142.66;;;22.02;59.78
11971;BME280;6045;42.682;23.294;2023-05-17T09:26:16;94135.78;;;22.05;59.13
11971;BME280;6045;42.682;23.294;2023-05-17T09:28:43;94139.09;;;22.24;59.26
11971;BME280;6045;42.682;23.294;2023-05-17T09:31:14;94143.78;;;22.32;59.59
11971;BME280;6045;42.682;23.294;2023-05-17T09:33:44;94151.13;;;22.31;59.16
11971;BME280;6045;42.682;23.294;2023-05-17T09:36:15;94141.34;;;22.30;58.01
11971;BME280;6045;42.682;23.294;2023-05-17T09:38:51;94137.97;;;22.25;59.15
11971;BME280;6045;42.682;23.294;2023-05-17T09:41:18;94144.63;;;22.10;59.92
11971;BME280;6045;42.682;23.294;2023-05-17T09:44:07;94148.41;;;22.01;58.35
11971;BME280;6045;42.682;23.294;2023-05-17T09:46:34;94145.97;;;21.91;59.09
11971;BME280;6045;42.682;23.294;2023-05-17T09:49:03;94154.38;;;21.80;60.00
11971;BME280;6045;42.682;23.294;2023-05-17T09:51:34;94152.78;;;21.57;61.02
11971;BME280;6045;42.682;23.294;2023-05-17T09:54:03;94147.41;;;21.08;61.17
11971;BME280;6045;42.682;23.294;2023-05-17T09:56:32;94139.88;;;20.78;61.81
11971;BME280;6045;42.682;23.294;2023-05-17T09:59:00;94145.53;;;20.81;62.66
11971;BME280;6045;42.682;23.294;2023-05-17T10:01:28;94152.69;;;20.64;61.91
11971;BME280;6045;42.682;23.294;2023-05-17T10:03:58;94144.16;;;20.29;64.17
11971;BME280;6045;42.682;23.294;2023-05-17T10:06:27;94138.00;;;20.10;65.16
11971;BME280;6045;42.682;23.294;2023-05-17T10:08:56;94133.97;;;19.94;66.12
11971;BME280;6045;42.682;23.294;2023-05-17T10:11:26;94125.31;;;19.92;66.94
11971;BME280;6045;42.682;23.294;2023-05-17T10:14:05;94128.13;;;20.01;66.62
11971;BME280;6045;42.682;23.294;2023-05-17T10:16:33;94128.31;;;19.91;65.18
11971;BME280;6045;42.682;23.294;2023-05-17T10:19:01;94120.38;;;19.81;65.28
11971;BME280;6045;42.682;23.294;2023-05-17T10:21:29;94121.25;;;19.76;65.97
11971;BME280;6045;42.682;23.294;2023-05-17T10:23:57;94111.78;;;19.60;67.01
11971;BME280;6045;42.682;23.294;2023-05-17T10:26:27;94105.09;;;19.39;66.97
11971;BME280;6045;42.682;23.294;2023-05-17T10:28:56;94103.78;;;19.36;68.16
11971;BME280;6045;42.682;23.294;2023-05-17T10:31:25;94094.31;;;19.34;67.76
11971;BME280;6045;42.682;23.294;2023-05-17T10:33:53;94090.09;;;19.28;67.74
11971;BME280;6045;42.682;23.294;2023-05-17T10:36:22;94064.25;;;19.17;67.77
11971;BME280;6045;42.682;23.294;2023-05-17T10:38:51;94061.31;;;19.13;67.37
11971;BME280;6045;42.682;23.294;2023-05-17T10:41:19;94052.66;;;18.97;67.81
11971;BME280;6045;42.682;23.294;2023-05-17T10:43:50;94036.31;;;19.02;68.51
11971;BME280;6045;42.682;23.294;2023-05-17T10:46:19;94029.03;;;19.17;68.28
11971;BME280;6045;42.682;23.294;2023-05-17T10:48:47;94027.75;;;19.28;67.74
11971;BME280;6045;42.682;23.294;2023-05-17T10:51:14;94003.31;;;19.46;67.67
11971;BME280;6045;42.682;23.294;2023-05-17T10:54:08;93998.13;;;19.63;66.82
11971;BME280;6045;42.682;23.294;2023-05-17T10:56:39;93990.97;;;19.67;65.88
11971;BME280;6045;42.682;23.294;2023-05-17T10:59:18;93998.41;;;19.62;66.53
11971;BME280;6045;42.682;23.294;2023-05-17T11:01:55;94000.75;;;19.68;66.84
11971;BME280;6045;42.682;23.294;2023-05-17T11:04:24;94002.81;;;19.71;66.35
11971;BME280;6045;42.682;23.294;2023-05-17T11:09:49;94003.34;;;19.73;66.68
11971;BME280;6045;42.682;23.294;2023-05-17T11:12:27;94000.41;;;19.84;67.29
11971;BME280;6045;42.682;23.294;2023-05-17T11:14:56;94009.16;;;20.08;65.59
11971;BME280;6045;42.682;23.294;2023-05-17T11:17:25;94020.19;;;19.98;66.25
11971;BME280;6045;42.682;23.294;2023-05-17T11:19:58;94021.72;;;19.90;66.83
11971;BME280;6045;42.682;23.294;2023-05-17T11:22:28;94030.88;;;19.94;66.42
11971;BME280;6045;42.682;23.294;2023-05-17T11:25:00;94032.06;;;20.15;65.67
11971;BME280;6045;42.682;23.294;2023-05-17T11:27:35;94044.31;;;20.40;65.68
11971;BME280;6045;42.682;23.294;2023-05-17T11:30:17;94054.78;;;20.47;65.48
11971;BME280;6045;42.682;23.294;2023-05-17T11:32:49;94056.19;;;20.44;65.78
11971;BME280;6045;42.682;23.294;2023-05-17T11:35:17;94061.78;;;20.48;65.52
11971;BME280;6045;42.682;23.294;2023-05-17T11:37:44;94075.88;;;20.50;64.78
11971;BME280;6045;42.682;23.294;2023-05-17T11:40:12;94073.88;;;20.41;65.12
11971;BME280;6045;42.682;23.294;2023-05-17T11:42:40;94082.16;;;20.23;66.82
11971;BME280;6045;42.682;23.294;2023-05-17T11:45:08;94083.50;;;19.93;67.26
11971;BME280;6045;42.682;23.294;2023-05-17T11:47:38;94096.78;;;19.95;68.21
11971;BME280;6045;42.682;23.294;2023-05-17T11:50:06;94093.16;;;19.99;68.10
11971;BME280;6045;42.682;23.294;2023-05-17T11:52:34;94105.78;;;19.76;68.17
11971;BME280;6045;42.682;23.294;2023-05-17T11:55:01;94093.13;;;19.72;69.21
11971;BME280;6045;42.682;23.294;2023-05-17T11:57:29;94087.50;;;19.68;67.39
11971;BME280;6045;42.682;23.294;2023-05-17T12:00:00;94095.94;;;19.67;67.57
11971;BME280;6045;42.682;23.294;2023-05-17T12:02:31;94099.03;;;19.60;67.55
11971;BME280;6045;42.682;23.294;2023-05-17T12:04:58;94099.31;;;19.45;66.91
11971;BME280;6045;42.682;23.294;2023-05-17T12:07:25;94092.59;;;19.24;68.50
11971;BME280;6045;42.682;23.294;2023-05-17T12:09:52;94092.38;;;19.21;69.13
11971;BME280;6045;42.682;23.294;2023-05-17T12:12:19;94093.81;;;19.32;68.74
11971;BME280;6045;42.682;23.294;2023-05-17T12:14:47;94094.00;;;19.54;68.45
11971;BME280;6045;42.682;23.294;2023-05-17T12:17:23;94090.91;;;19.60;68.17
11971;BME280;6045;42.682;23.294;2023-05-17T12:19:55;94092.22;;;19.63;66.86
11971;BME280;6045;42.682;23.294;2023-05-17T12:22:31;94087.78;;;19.35;68.08
11971;BME280;6045;42.682;23.294;2023-05-17T12:24:58;94089.44;;;19.36;68.51
11971;BME280;6045;42.682;23.294;2023-05-17T12:27:25;94077.81;;;19.49;67.25
11971;BME280;6045;42.682;23.294;2023-05-17T12:29:52;94076.44;;;19.51;66.88
11971;BME280;6045;42.682;23.294;2023-05-17T12:32:19;94082.31;;;19.40;66.64
11971;BME280;6045;42.682;23.294;2023-05-17T12:34:46;94080.22;;;19.18;66.93
11971;BME280;6045;42.682;23.294;2023-05-17T12:37:15;94069.06;;;19.20;67.41
11971;BME280;6045;42.682;23.294;2023-05-17T12:39:42;94070.53;;;19.31;67.37
11971;BME280;6045;42.682;23.294;2023-05-17T12:42:09;94063.88;;;19.23;67.51
11971;BME280;6045;42.682;23.294;2023-05-17T12:44:36;94072.00;;;19.23;67.51
11971;BME280;6045;42.682;23.294;2023-05-17T12:47:03;94071.66;;;19.11;67.76
11971;BME280;6045;42.682;23.294;2023-05-17T12:49:29;94061.78;;;19.01;68.83
11971;BME280;6045;42.682;23.294;2023-05-17T12:52:02;94058.91;;;18.79;69.91
11971;BME280;6045;42.682;23.294;2023-05-17T12:54:30;94062.28;;;19.03;70.41
11971;BME280;6045;42.682;23.294;2023-05-17T12:57:07;94057.09;;;19.07;69.88
11971;BME280;6045;42.682;23.294;2023-05-17T12:59:45;94061.22;;;19.04;69.81
11971;BME280;6045;42.682;23.294;2023-05-17T13:02:12;94059.34;;;19.19;69.55
11971;BME280;6045;42.682;23.294;2023-05-17T13:04:39;94058.22;;;19.20;69.78
11971;BME280;6045;42.682;23.294;2023-05-17T13:07:07;94063.50;;;19.30;68.77
11971;BME280;6045;42.682;23.294;2023-05-17T13:09:45;94059.84;;;19.53;67.89
11971;BME280;6045;42.682;23.294;2023-05-17T13:12:18;94057.56;;;19.60;67.46
11971;BME280;6045;42.682;23.294;2023-05-17T13:14:46;94054.34;;;19.58;68.60